1853 Hurricane NOT_NAMED (1853228N14322)


IBTrACS version v04r00. Visit IBTrACS website for data access.
Please direct all questions to the IBTrACS Q and A forum

Storm track - Intensity - Wind Radii - Intensity Data - Source Data - All data

Summary Information

Storm ID 1853228N14322
Start Aug 15 12Z
Max Intensity 80 kt (Aug 18 00Z)
End Aug 22 12Z
ATCF IDs
Track status Best track data.

Storm track plot

Map of storm track

Intensity plots

Map of storm track

Radial wind information

No radial wind information for this storm


Position and Intensity Table

BASIN ISO_TIME_________ NATURE LAT LON MLC WIND
degrees north degrees east kts
NA 1853-08-15 12:00:00 TS 14.40 -38.50 35
NA 15:00:00 TS 14.59 -39.45 35
NA 18:00:00 TS 14.80 -40.40 35
NA 21:00:00 TS 15.05 -41.35 37
NA 1853-08-16 00:00:00 TS 15.30 -42.30 40
NA 03:00:00 TS 15.50 -43.26 40
NA 06:00:00 TS 15.70 -44.20 40
NA 09:00:00 TS 15.94 -45.14 42
NA 12:00:00 TS 16.20 -46.00 45
NA 15:00:00 TS 16.45 -46.73 45
NA 18:00:00 TS 16.70 -47.40 45
NA 21:00:00 TS 16.95 -48.10 47
NA 1853-08-17 00:00:00 TS 17.20 -48.80 50
NA 03:00:00 TS 17.45 -49.51 55
NA 06:00:00 TS 17.70 -50.20 60
NA 09:00:00 TS 17.93 -50.81 60
NA 12:00:00 TS 18.20 -51.50 60
NA 15:00:00 TS 18.54 -52.45 65
NA 18:00:00 TS 18.90 -53.50 70
NA 21:00:00 TS 19.25 -54.46 75
NA 1853-08-18 00:00:00 TS 19.60 -55.40 80
NA 03:00:00 TS 19.95 -56.35 80
NA 06:00:00 TS 20.30 -57.30 80
NA 09:00:00 TS 20.61 -58.30 80
NA 12:00:00 TS 21.00 -59.20 80
NA 15:00:00 TS 21.57 -59.85 80
NA 18:00:00 TS 22.20 -60.40 80
NA 21:00:00 TS 22.76 -61.00 80
NA 1853-08-19 00:00:00 TS 23.30 -61.60 80
NA 03:00:00 TS 23.85 -62.20 77
NA 06:00:00 TS 24.40 -62.80 75
NA 09:00:00 TS 24.92 -63.43 70
NA 12:00:00 TS 25.50 -64.00 65
NA 15:00:00 TS 26.23 -64.44 60
NA 18:00:00 TS 27.00 -64.80 55
NA 21:00:00 TS 27.71 -65.19 55
NA 1853-08-20 00:00:00 TS 28.40 -65.50 55
NA 03:00:00 TS 29.09 -65.70 55
NA 06:00:00 TS 29.80 -65.80 55
NA 09:00:00 TS 30.58 -65.87 55
NA 12:00:00 TS 31.30 -65.80 55
NA 15:00:00 TS 31.84 -65.66 55
NA 18:00:00 TS 32.30 -65.20 55
NA 21:00:00 TS 32.80 -64.15 50
NA 1853-08-21 00:00:00 TS 33.30 -63.00 45
NA 03:00:00 TS 33.80 -62.33 45
NA 06:00:00 TS 34.30 -61.80 45
NA 09:00:00 TS 34.76 -61.19 45
NA 12:00:00 TS 35.30 -60.50 45
NA 15:00:00 TS 36.02 -59.67 42
NA 18:00:00 TS 36.80 -58.80 40
NA 21:00:00 TS 37.51 -58.04 37
NA 1853-08-22 00:00:00 ET 38.20 -57.30 35
NA 03:00:00 ET 38.90 -56.51 32
NA 06:00:00 ET 39.60 -55.70 30
NA 09:00:00 ET 40.30 -54.86 30
NA 12:00:00 ET 41.00 -54.00 30

Source Information

Agency Information
USA
TOKYO
CMA
HKO
NEWDELHI
REUNION
BOM
NADI
WELLINGTON
DS824
TD9636
TD9635
NEUMANN
MLC

All available IBTrACS Data

SEASON BASIN SUBBASIN ISO_TIME_________ NATURE LAT LON DIST2LAND LANDFALL IFLAG USA SSHS MLC LAT MLC LON MLC CLASS MLC WIND STORM SPEED STORM DIR
Year degrees north degrees east km km 1 degrees north degrees east kts kts degrees
1853 NA NA 1853-08-15 12:00:00 TS 14.40 -38.50 1802 1741 _____________O -1 14.40 -38.50 TS 35 19 282
1853 NA NA 15:00:00 TS 14.59 -39.45 1741 1684 _____________P -1 14.59 -39.45 TS 35 19 282
1853 NA NA 18:00:00 TS 14.80 -40.40 1676 1623 _____________O -1 14.80 -40.40 TS 35 19 284
1853 NA NA 21:00:00 TS 15.05 -41.35 1616 1582 _____________P -1 15.05 -41.35 TS 37 19 285
1853 NA NA 1853-08-16 00:00:00 TS 15.30 -42.30 1577 1536 _____________O -1 15.30 -42.30 TS 40 19 284
1853 NA NA 03:00:00 TS 15.50 -43.26 1529 1498 _____________P -1 15.50 -43.26 TS 40 19 282
1853 NA NA 06:00:00 TS 15.70 -44.20 1491 1451 _____________O -1 15.70 -44.20 TS 40 19 284
1853 NA NA 09:00:00 TS 15.94 -45.14 1451 1427 _____________P -1 15.94 -45.14 TS 42 18 286
1853 NA NA 12:00:00 TS 16.20 -46.00 1427 1409 _____________O -1 16.20 -46.00 TS 45 16 288
1853 NA NA 15:00:00 TS 16.45 -46.73 1409 1400 _____________P -1 16.45 -46.73 TS 45 14 290
1853 NA NA 18:00:00 TS 16.70 -47.40 1405 1396 _____________O -1 16.70 -47.40 TS 45 14 291
1853 NA NA 21:00:00 TS 16.95 -48.10 1396 1394 _____________P -1 16.95 -48.10 TS 47 14 290
1853 NA NA 1853-08-17 00:00:00 TS 17.20 -48.80 1395 1385 _____________O -1 17.20 -48.80 TS 50 14 290
1853 NA NA 03:00:00 TS 17.45 -49.51 1385 1383 _____________P -1 17.45 -49.51 TS 55 14 291
1853 NA NA 06:00:00 TS 17.70 -50.20 1391 1362 _____________O -1 17.70 -50.20 TS 60 13 291
1853 NA NA 09:00:00 TS 17.93 -50.81 1362 1323 _____________P -1 17.93 -50.81 TS 60 13 292
1853 NA NA 12:00:00 TS 18.20 -51.50 1323 1271 _____________O -1 18.20 -51.50 TS 60 17 291
1853 NA NA 15:00:00 TS 18.54 -52.45 1264 1227 _____________P -1 18.54 -52.45 TS 65 20 290
1853 NA NA 18:00:00 TS 18.90 -53.50 1221 1182 _____________O -1 18.90 -53.50 HU 70 20 291
1853 NA NA 21:00:00 TS 19.25 -54.46 1171 1091 _____________P -1 19.25 -54.46 HU 75 19 291
1853 NA NA 1853-08-18 00:00:00 TS 19.60 -55.40 1080 991 _____________O -1 19.60 -55.40 HU 80 19 291
1853 NA NA 03:00:00 TS 19.95 -56.35 980 906 _____________P -1 19.95 -56.35 HU 80 19 291
1853 NA NA 06:00:00 TS 20.30 -57.30 896 813 _____________O -1 20.30 -57.30 HU 80 20 290
1853 NA NA 09:00:00 TS 20.61 -58.30 803 730 _____________P -1 20.61 -58.30 HU 80 19 291
1853 NA NA 12:00:00 TS 21.00 -59.20 730 698 _____________O -1 21.00 -59.20 HU 80 17 303
1853 NA NA 15:00:00 TS 21.57 -59.85 694 686 _____________P -1 21.57 -59.85 HU 80 16 317
1853 NA NA 18:00:00 TS 22.20 -60.40 688 678 _____________O -1 22.20 -60.40 HU 80 16 318
1853 NA NA 21:00:00 TS 22.76 -61.00 686 679 _____________P -1 22.76 -61.00 HU 80 16 315
1853 NA NA 1853-08-19 00:00:00 TS 23.30 -61.60 687 687 _____________O -1 23.30 -61.60 HU 80 16 315
1853 NA NA 03:00:00 TS 23.85 -62.20 699 699 _____________P -1 23.85 -62.20 HU 77 16 315
1853 NA NA 06:00:00 TS 24.40 -62.80 730 730 _____________O -1 24.40 -62.80 HU 75 16 314
1853 NA NA 09:00:00 TS 24.92 -63.43 761 758 _____________P -1 24.92 -63.43 HU 70 16 315
1853 NA NA 12:00:00 TS 25.50 -64.00 810 810 _____________O -1 25.50 -64.00 HU 65 16 325
1853 NA NA 15:00:00 TS 26.23 -64.44 880 880 _____________P -1 26.23 -64.44 HU 60 17 334
1853 NA NA 18:00:00 TS 27.00 -64.80 964 964 _____________O -1 27.00 -64.80 TS 55 16 336
1853 NA NA 21:00:00 TS 27.71 -65.19 1027 1027 _____________P -1 27.71 -65.19 TS 55 15 336
1853 NA NA 1853-08-20 00:00:00 TS 28.40 -65.50 1084 1084 _____________O -1 28.40 -65.50 TS 55 15 342
1853 NA NA 03:00:00 TS 29.09 -65.70 1147 1124 _____________P -1 29.09 -65.70 TS 55 14 349
1853 NA NA 06:00:00 TS 29.80 -65.80 1124 1069 _____________O -1 29.80 -65.80 TS 55 15 355
1853 NA NA 09:00:00 TS 30.58 -65.87 1062 1027 _____________P -1 30.58 -65.87 TS 55 15 0
1853 NA NA 12:00:00 TS 31.30 -65.80 1027 1007 _____________O -1 31.30 -65.80 TS 55 13 8
1853 NA NA 15:00:00 TS 31.84 -65.66 1007 1004 _____________P -1 31.84 -65.66 TS 55 11 27
1853 NA NA 18:00:00 TS 32.30 -65.20 1023 1023 _____________O -1 32.30 -65.20 TS 55 16 53
1853 NA NA 21:00:00 TS 32.80 -64.15 1096 1096 _____________P -1 32.80 -64.15 TS 50 21 62
1853 NA NA 1853-08-21 00:00:00 TS 33.30 -63.00 1119 1102 _____________O -1 33.30 -63.00 TS 45 18 57
1853 NA NA 03:00:00 TS 33.80 -62.33 1107 1067 _____________P -1 33.80 -62.33 TS 45 14 45
1853 NA NA 06:00:00 TS 34.30 -61.80 1067 1037 _____________O -1 34.30 -61.80 TS 45 14 44
1853 NA NA 09:00:00 TS 34.76 -61.19 1030 1000 _____________P -1 34.76 -61.19 TS 45 15 47
1853 NA NA 12:00:00 TS 35.30 -60.50 1000 961 _____________O -1 35.30 -60.50 TS 45 18 45
1853 NA NA 15:00:00 TS 36.02 -59.67 961 926 _____________P -1 36.02 -59.67 TS 42 20 43
1853 NA NA 18:00:00 TS 36.80 -58.80 926 890 _____________O -1 36.80 -58.80 TS 40 20 41
1853 NA NA 21:00:00 TS 37.51 -58.04 894 839 _____________P -1 37.51 -58.04 TS 37 18 40
1853 NA NA 1853-08-22 00:00:00 ET 38.20 -57.30 839 792 _____________O -1 38.20 -57.30 EX 35 18 41
1853 NA NA 03:00:00 ET 38.90 -56.51 796 763 _____________P -1 38.90 -56.51 EX 32 19 42
1853 NA NA 06:00:00 ET 39.60 -55.70 763 708 _____________O -1 39.60 -55.70 EX 30 19 42
1853 NA NA 09:00:00 ET 40.30 -54.86 708 623 _____________P -1 40.30 -54.86 EX 30 19 43
1853 NA NA 12:00:00 ET 41.00 -54.00 623 _____________O -1 41.00 -54.00 EX 30 19 43